sensor_id;sensor_type;location;lat;lon;timestamp;temperature;humidity
2389;DHT22;1205;47.984;7.668;2022-10-22T00:02:03;14.90;99.90
2389;DHT22;1205;47.984;7.668;2022-10-22T00:04:31;14.80;99.90
2389;DHT22;1205;47.984;7.668;2022-10-22T00:06:57;14.80;99.90
2389;DHT22;1205;47.984;7.668;2022-10-22T00:09:23;14.80;99.90
2389;DHT22;1205;47.984;7.668;2022-10-22T00:11:49;14.80;99.90
2389;DHT22;1205;47.984;7.668;2022-10-22T00:14:15;14.80;99.90
2389;DHT22;1205;47.984;7.668;2022-10-22T00:16:40;14.80;99.90
2389;DHT22;1205;47.984;7.668;2022-10-22T00:19:06;14.90;99.90
2389;DHT22;1205;47.984;7.668;2022-10-22T00:21:36;14.90;99.90
2389;DHT22;1205;47.984;7.668;2022-10-22T00:24:01;14.90;99.90
2389;DHT22;1205;47.984;7.668;2022-10-22T00:26:27;14.90;99.90
2389;DHT22;1205;47.984;7.668;2022-10-22T00:28:52;15.00;99.90
2389;DHT22;1205;47.984;7.668;2022-10-22T00:31:18;15.00;99.90
2389;DHT22;1205;47.984;7.668;2022-10-22T00:33:46;15.00;99.90
2389;DHT22;1205;47.984;7.668;2022-10-22T00:36:12;15.00;99.90
2389;DHT22;1205;47.984;7.668;2022-10-22T00:38:38;15.00;99.90
2389;DHT22;1205;47.984;7.668;2022-10-22T00:41:04;14.90;99.90
2389;DHT22;1205;47.984;7.668;2022-10-22T00:43:30;14.90;99.90
2389;DHT22;1205;47.984;7.668;2022-10-22T00:45:56;15.00;99.90
2389;DHT22;1205;47.984;7.668;2022-10-22T00:48:27;15.00;99.90
2389;DHT22;1205;47.984;7.668;2022-10-22T00:51:02;14.90;99.90
2389;DHT22;1205;47.984;7.668;2022-10-22T00:53:31;14.90;99.90
2389;DHT22;1205;47.984;7.668;2022-10-22T00:55:59;14.90;99.90
2389;DHT22;1205;47.984;7.668;2022-10-22T00:58:28;14.80;99.90
2389;DHT22;1205;47.984;7.668;2022-10-22T01:00:55;14.80;99.90
2389;DHT22;1205;47.984;7.668;2022-10-22T01:03:21;14.70;99.90
2389;DHT22;1205;47.984;7.668;2022-10-22T01:05:55;14.70;99.90
2389;DHT22;1205;47.984;7.668;2022-10-22T01:13:40;14.70;99.90
2389;DHT22;1205;47.984;7.668;2022-10-22T01:16:40;14.70;99.90
2389;DHT22;1205;47.984;7.668;2022-10-22T01:21:57;14.70;99.90
2389;DHT22;1205;47.984;7.668;2022-10-22T01:29:46;14.60;99.90
2389;DHT22;1205;47.984;7.668;2022-10-22T01:32:19;14.60;99.90
2389;DHT22;1205;47.984;7.668;2022-10-22T01:34:51;14.50;99.90
2389;DHT22;1205;47.984;7.668;2022-10-22T01:37:19;14.40;99.90
2389;DHT22;1205;47.984;7.668;2022-10-22T01:39:46;14.40;99.90
2389;DHT22;1205;47.984;7.668;2022-10-22T01:42:13;14.30;99.90
2389;DHT22;1205;47.984;7.668;2022-10-22T01:44:39;14.30;99.90
2389;DHT22;1205;47.984;7.668;2022-10-22T02:01:31;14.40;99.90
2389;DHT22;1205;47.984;7.668;2022-10-22T02:04:07;14.30;99.90
2389;DHT22;1205;47.984;7.668;2022-10-22T02:06:37;14.30;99.90
2389;DHT22;1205;47.984;7.668;2022-10-22T02:09:04;14.40;99.90
2389;DHT22;1205;47.984;7.668;2022-10-22T02:11:30;14.40;99.90
2389;DHT22;1205;47.984;7.668;2022-10-22T02:14:00;14.40;99.90
2389;DHT22;1205;47.984;7.668;2022-10-22T02:16:47;14.30;99.90
2389;DHT22;1205;47.984;7.668;2022-10-22T02:19:22;14.40;99.90
2389;DHT22;1205;47.984;7.668;2022-10-22T02:21:48;14.40;99.90
2389;DHT22;1205;47.984;7.668;2022-10-22T02:24:14;14.40;99.90
2389;DHT22;1205;47.984;7.668;2022-10-22T02:35:22;14.40;99.90
2389;DHT22;1205;47.984;7.668;2022-10-22T02:37:50;14.40;99.90
2389;DHT22;1205;47.984;7.668;2022-10-22T02:40:17;14.40;99.90
2389;DHT22;1205;47.984;7.668;2022-10-22T02:42:43;14.40;99.90
2389;DHT22;1205;47.984;7.668;2022-10-22T02:45:10;14.40;99.90
2389;DHT22;1205;47.984;7.668;2022-10-22T02:47:36;14.40;99.90
2389;DHT22;1205;47.984;7.668;2022-10-22T02:50:02;14.50;99.90
2389;DHT22;1205;47.984;7.668;2022-10-22T02:52:27;14.50;99.90
2389;DHT22;1205;47.984;7.668;2022-10-22T02:54:53;14.40;99.90
2389;DHT22;1205;47.984;7.668;2022-10-22T02:57:18;14.40;99.90
2389;DHT22;1205;47.984;7.668;2022-10-22T02:59:44;14.40;99.90
2389;DHT22;1205;47.984;7.668;2022-10-22T03:02:09;14.40;99.90
2389;DHT22;1205;47.984;7.668;2022-10-22T03:04:35;14.40;99.90
2389;DHT22;1205;47.984;7.668;2022-10-22T03:07:00;14.40;99.90
2389;DHT22;1205;47.984;7.668;2022-10-22T03:09:26;14.40;99.90
2389;DHT22;1205;47.984;7.668;2022-10-22T03:11:52;14.40;99.90
2389;DHT22;1205;47.984;7.668;2022-10-22T03:14:17;14.30;99.90
2389;DHT22;1205;47.984;7.668;2022-10-22T03:16:43;14.40;99.90
2389;DHT22;1205;47.984;7.668;2022-10-22T03:19:08;14.40;99.90
2389;DHT22;1205;47.984;7.668;2022-10-22T03:21:41;14.40;99.90
2389;DHT22;1205;47.984;7.668;2022-10-22T03:24:14;14.30;99.90
2389;DHT22;1205;47.984;7.668;2022-10-22T03:26:42;14.30;99.90
2389;DHT22;1205;47.984;7.668;2022-10-22T03:29:10;14.30;99.90
2389;DHT22;1205;47.984;7.668;2022-10-22T03:31:36;14.20;99.90
2389;DHT22;1205;47.984;7.668;2022-10-22T03:34:02;14.10;99.90
2389;DHT22;1205;47.984;7.668;2022-10-22T03:36:28;14.20;99.90
2389;DHT22;1205;47.984;7.668;2022-10-22T03:38:53;14.10;99.90
2389;DHT22;1205;47.984;7.668;2022-10-22T03:41:19;14.10;99.90
2389;DHT22;1205;47.984;7.668;2022-10-22T03:43:45;14.10;99.90
2389;DHT22;1205;47.984;7.668;2022-10-22T03:46:14;14.00;99.90
2389;DHT22;1205;47.984;7.668;2022-10-22T03:48:40;14.00;99.90
2389;DHT22;1205;47.984;7.668;2022-10-22T03:51:05;14.00;99.90
2389;DHT22;1205;47.984;7.668;2022-10-22T03:53:31;13.90;99.90
2389;DHT22;1205;47.984;7.668;2022-10-22T03:55:56;13.90;99.90
2389;DHT22;1205;47.984;7.668;2022-10-22T03:58:22;13.80;99.90
2389;DHT22;1205;47.984;7.668;2022-10-22T04:00:47;13.80;99.90
2389;DHT22;1205;47.984;7.668;2022-10-22T04:03:13;13.90;99.90
2389;DHT22;1205;47.984;7.668;2022-10-22T04:05:39;13.80;99.90
2389;DHT22;1205;47.984;7.668;2022-10-22T04:08:04;13.80;99.90
2389;DHT22;1205;47.984;7.668;2022-10-22T04:10:30;13.80;99.90
2389;DHT22;1205;47.984;7.668;2022-10-22T04:12:55;13.80;99.90
2389;DHT22;1205;47.984;7.668;2022-10-22T04:15:21;13.80;99.90
2389;DHT22;1205;47.984;7.668;2022-10-22T04:17:47;13.70;99.90
2389;DHT22;1205;47.984;7.668;2022-10-22T04:20:12;13.60;99.90
2389;DHT22;1205;47.984;7.668;2022-10-22T04:22:38;13.50;99.90
2389;DHT22;1205;47.984;7.668;2022-10-22T04:25:04;13.40;99.90
2389;DHT22;1205;47.984;7.668;2022-10-22T04:27:33;13.40;99.90
2389;DHT22;1205;47.984;7.668;2022-10-22T04:29:59;13.40;99.90
2389;DHT22;1205;47.984;7.668;2022-10-22T04:32:26;13.40;99.90
2389;DHT22;1205;47.984;7.668;2022-10-22T04:34:52;13.50;99.90
2389;DHT22;1205;47.984;7.668;2022-10-22T04:37:17;13.50;99.90
2389;DHT22;1205;47.984;7.668;2022-10-22T04:39:43;13.50;99.90
2389;DHT22;1205;47.984;7.668;2022-10-22T04:42:08;13.50;99.90
2389;DHT22;1205;47.984;7.668;2022-10-22T04:44:34;13.50;99.90
2389;DHT22;1205;47.984;7.668;2022-10-22T04:46:59;13.40;99.90
2389;DHT22;1205;47.984;7.668;2022-10-22T04:49:25;13.50;99.90
2389;DHT22;1205;47.984;7.668;2022-10-22T04:51:51;13.40;99.90
2389;DHT22;1205;47.984;7.668;2022-10-22T04:54:16;13.40;99.90
2389;DHT22;1205;47.984;7.668;2022-10-22T04:56:42;13.40;99.90
2389;DHT22;1205;47.984;7.668;2022-10-22T04:59:09;13.40;99.90
2389;DHT22;1205;47.984;7.668;2022-10-22T05:01:39;13.40;99.90
2389;DHT22;1205;47.984;7.668;2022-10-22T05:04:05;13.40;99.90
2389;DHT22;1205;47.984;7.668;2022-10-22T05:06:33;13.40;99.90
2389;DHT22;1205;47.984;7.668;2022-10-22T05:09:03;13.40;99.90
2389;DHT22;1205;47.984;7.668;2022-10-22T05:11:32;13.50;99.90
2389;DHT22;1205;47.984;7.668;2022-10-22T05:14:00;13.50;99.90
2389;DHT22;1205;47.984;7.668;2022-10-22T05:16:27;13.40;99.90
2389;DHT22;1205;47.984;7.668;2022-10-22T05:18:53;13.40;99.90
2389;DHT22;1205;47.984;7.668;2022-10-22T05:21:19;13.40;99.90
2389;DHT22;1205;47.984;7.668;2022-10-22T05:23:47;13.50;99.90
2389;DHT22;1205;47.984;7.668;2022-10-22T05:26:15;13.40;99.90
2389;DHT22;1205;47.984;7.668;2022-10-22T05:28:41;13.40;99.90
2389;DHT22;1205;47.984;7.668;2022-10-22T05:31:09;13.40;99.90
2389;DHT22;1205;47.984;7.668;2022-10-22T05:33:35;13.40;99.90
2389;DHT22;1205;47.984;7.668;2022-10-22T05:36:02;13.40;99.90
2389;DHT22;1205;47.984;7.668;2022-10-22T05:38:28;13.40;99.90
2389;DHT22;1205;47.984;7.668;2022-10-22T05:41:01;13.40;99.90
2389;DHT22;1205;47.984;7.668;2022-10-22T05:43:27;13.40;99.90
2389;DHT22;1205;47.984;7.668;2022-10-22T05:45:53;13.30;99.90
2389;DHT22;1205;47.984;7.668;2022-10-22T05:48:18;13.30;99.90
2389;DHT22;1205;47.984;7.668;2022-10-22T05:50:44;13.30;99.90
2389;DHT22;1205;47.984;7.668;2022-10-22T05:53:17;13.30;99.90
2389;DHT22;1205;47.984;7.668;2022-10-22T05:55:43;13.30;99.90
2389;DHT22;1205;47.984;7.668;2022-10-22T05:58:11;13.20;99.90
2389;DHT22;1205;47.984;7.668;2022-10-22T06:00:37;13.20;99.90
2389;DHT22;1205;47.984;7.668;2022-10-22T06:03:03;13.20;99.90
2389;DHT22;1205;47.984;7.668;2022-10-22T06:05:28;13.20;99.90
2389;DHT22;1205;47.984;7.668;2022-10-22T06:07:55;13.10;99.90
2389;DHT22;1205;47.984;7.668;2022-10-22T06:10:21;13.10;99.90
2389;DHT22;1205;47.984;7.668;2022-10-22T06:12:48;13.20;99.90
2389;DHT22;1205;47.984;7.668;2022-10-22T06:15:15;13.20;99.90
2389;DHT22;1205;47.984;7.668;2022-10-22T06:17:43;13.20;99.90
2389;DHT22;1205;47.984;7.668;2022-10-22T06:20:09;13.20;99.90
2389;DHT22;1205;47.984;7.668;2022-10-22T06:22:35;13.20;99.90
2389;DHT22;1205;47.984;7.668;2022-10-22T06:25:01;13.90;99.90
2389;DHT22;1205;47.984;7.668;2022-10-22T06:27:26;14.30;99.90
2389;DHT22;1205;47.984;7.668;2022-10-22T06:29:52;14.40;99.90
2389;DHT22;1205;47.984;7.668;2022-10-22T06:32:17;14.70;99.90
2389;DHT22;1205;47.984;7.668;2022-10-22T06:34:43;14.90;99.90
2389;DHT22;1205;47.984;7.668;2022-10-22T06:37:09;15.00;99.90
2389;DHT22;1205;47.984;7.668;2022-10-22T06:39:35;15.10;99.90
2389;DHT22;1205;47.984;7.668;2022-10-22T06:42:01;15.30;99.90
2389;DHT22;1205;47.984;7.668;2022-10-22T06:44:26;15.20;99.90
2389;DHT22;1205;47.984;7.668;2022-10-22T06:46:52;15.30;99.90
2389;DHT22;1205;47.984;7.668;2022-10-22T06:49:19;15.40;99.90
2389;DHT22;1205;47.984;7.668;2022-10-22T06:51:47;15.40;99.90
2389;DHT22;1205;47.984;7.668;2022-10-22T06:54:13;15.50;99.90
2389;DHT22;1205;47.984;7.668;2022-10-22T06:56:39;15.50;99.90
2389;DHT22;1205;47.984;7.668;2022-10-22T06:59:05;15.50;99.90
2389;DHT22;1205;47.984;7.668;2022-10-22T07:01:33;14.90;99.90
2389;DHT22;1205;47.984;7.668;2022-10-22T07:04:00;14.60;99.90
2389;DHT22;1205;47.984;7.668;2022-10-22T07:06:26;14.40;99.90
2389;DHT22;1205;47.984;7.668;2022-10-22T07:08:56;14.30;99.90
2389;DHT22;1205;47.984;7.668;2022-10-22T07:11:29;14.20;99.90
2389;DHT22;1205;47.984;7.668;2022-10-22T07:13:57;14.10;99.90
2389;DHT22;1205;47.984;7.668;2022-10-22T07:16:23;14.10;99.90
2389;DHT22;1205;47.984;7.668;2022-10-22T07:18:49;14.10;99.90
2389;DHT22;1205;47.984;7.668;2022-10-22T07:21:16;14.00;99.90
2389;DHT22;1205;47.984;7.668;2022-10-22T07:23:42;14.10;99.90
2389;DHT22;1205;47.984;7.668;2022-10-22T07:26:10;14.10;99.90
2389;DHT22;1205;47.984;7.668;2022-10-22T07:28:37;14.10;99.90
2389;DHT22;1205;47.984;7.668;2022-10-22T07:31:04;14.10;99.90
2389;DHT22;1205;47.984;7.668;2022-10-22T07:33:30;14.20;99.90
2389;DHT22;1205;47.984;7.668;2022-10-22T07:36:02;14.20;99.90
2389;DHT22;1205;47.984;7.668;2022-10-22T07:38:29;14.20;99.90
2389;DHT22;1205;47.984;7.668;2022-10-22T07:40:56;14.20;99.90
2389;DHT22;1205;47.984;7.668;2022-10-22T07:43:22;14.20;99.90
2389;DHT22;1205;47.984;7.668;2022-10-22T07:45:48;14.30;99.90
2389;DHT22;1205;47.984;7.668;2022-10-22T07:48:14;14.30;99.90
2389;DHT22;1205;47.984;7.668;2022-10-22T07:50:39;14.40;99.90
2389;DHT22;1205;47.984;7.668;2022-10-22T07:53:05;14.40;99.90
2389;DHT22;1205;47.984;7.668;2022-10-22T07:55:31;14.40;99.90
2389;DHT22;1205;47.984;7.668;2022-10-22T07:57:56;14.40;99.90
2389;DHT22;1205;47.984;7.668;2022-10-22T08:00:22;14.50;99.90
2389;DHT22;1205;47.984;7.668;2022-10-22T08:02:48;14.60;99.90
2389;DHT22;1205;47.984;7.668;2022-10-22T08:05:13;14.60;99.90
2389;DHT22;1205;47.984;7.668;2022-10-22T08:07:39;14.60;99.90
2389;DHT22;1205;47.984;7.668;2022-10-22T08:10:06;14.60;99.90
2389;DHT22;1205;47.984;7.668;2022-10-22T08:12:32;14.60;99.90
2389;DHT22;1205;47.984;7.668;2022-10-22T08:14:57;14.70;99.90
2389;DHT22;1205;47.984;7.668;2022-10-22T08:17:25;14.80;99.90
2389;DHT22;1205;47.984;7.668;2022-10-22T08:19:50;14.80;99.90
2389;DHT22;1205;47.984;7.668;2022-10-22T08:22:16;14.90;99.90
2389;DHT22;1205;47.984;7.668;2022-10-22T08:24:41;15.00;99.90
2389;DHT22;1205;47.984;7.668;2022-10-22T08:27:07;15.10;99.90
2389;DHT22;1205;47.984;7.668;2022-10-22T08:29:33;15.10;99.90
2389;DHT22;1205;47.984;7.668;2022-10-22T08:31:58;15.20;99.90
2389;DHT22;1205;47.984;7.668;2022-10-22T08:34:24;15.20;99.90
2389;DHT22;1205;47.984;7.668;2022-10-22T08:36:49;15.20;99.90
2389;DHT22;1205;47.984;7.668;2022-10-22T08:39:15;15.30;99.90
2389;DHT22;1205;47.984;7.668;2022-10-22T08:47:31;15.60;99.90
2389;DHT22;1205;47.984;7.668;2022-10-22T08:50:01;15.70;99.90
2389;DHT22;1205;47.984;7.668;2022-10-22T08:52:27;15.80;99.90
2389;DHT22;1205;47.984;7.668;2022-10-22T08:54:58;15.90;99.90
2389;DHT22;1205;47.984;7.668;2022-10-22T08:57:48;16.00;99.90
2389;DHT22;1205;47.984;7.668;2022-10-22T09:00:23;16.10;99.90
2389;DHT22;1205;47.984;7.668;2022-10-22T09:02:56;16.10;99.90
2389;DHT22;1205;47.984;7.668;2022-10-22T09:08:18;16.30;99.90
2389;DHT22;1205;47.984;7.668;2022-10-22T09:10:52;16.40;99.90
2389;DHT22;1205;47.984;7.668;2022-10-22T09:13:20;16.50;99.90
2389;DHT22;1205;47.984;7.668;2022-10-22T09:15:54;16.60;99.90
2389;DHT22;1205;47.984;7.668;2022-10-22T09:20:53;16.80;99.90
2389;DHT22;1205;47.984;7.668;2022-10-22T09:25:56;16.90;99.90
2389;DHT22;1205;47.984;7.668;2022-10-22T09:28:22;17.00;99.90
2389;DHT22;1205;47.984;7.668;2022-10-22T09:30:48;17.00;99.90
2389;DHT22;1205;47.984;7.668;2022-10-22T09:33:28;17.10;99.90
2389;DHT22;1205;47.984;7.668;2022-10-22T09:36:00;17.20;99.90
2389;DHT22;1205;47.984;7.668;2022-10-22T09:38:35;17.40;99.90
2389;DHT22;1205;47.984;7.668;2022-10-22T09:41:03;17.40;99.90
2389;DHT22;1205;47.984;7.668;2022-10-22T09:43:30;17.40;99.90
2389;DHT22;1205;47.984;7.668;2022-10-22T09:45:58;17.30;99.90
2389;DHT22;1205;47.984;7.668;2022-10-22T09:53:44;17.70;99.90
2389;DHT22;1205;47.984;7.668;2022-10-22T09:56:33;17.90;99.90
2389;DHT22;1205;47.984;7.668;2022-10-22T09:59:02;18.20;99.90
2389;DHT22;1205;47.984;7.668;2022-10-22T10:01:32;18.10;99.90
2389;DHT22;1205;47.984;7.668;2022-10-22T10:04:06;18.10;99.90
2389;DHT22;1205;47.984;7.668;2022-10-22T10:06:33;18.20;99.90
2389;DHT22;1205;47.984;7.668;2022-10-22T10:08:59;18.30;99.90
2389;DHT22;1205;47.984;7.668;2022-10-22T10:11:33;18.40;99.90
2389;DHT22;1205;47.984;7.668;2022-10-22T10:14:23;18.60;99.90
2389;DHT22;1205;47.984;7.668;2022-10-22T10:22:16;18.70;99.90
2389;DHT22;1205;47.984;7.668;2022-10-22T10:28:22;18.70;99.90
2389;DHT22;1205;47.984;7.668;2022-10-22T10:42:40;19.00;99.90
2389;DHT22;1205;47.984;7.668;2022-10-22T10:45:36;19.10;99.90
2389;DHT22;1205;47.984;7.668;2022-10-22T10:56:50;19.20;99.90
2389;DHT22;1205;47.984;7.668;2022-10-22T11:07:04;19.30;99.90
2389;DHT22;1205;47.984;7.668;2022-10-22T11:09:39;19.40;99.90
2389;DHT22;1205;47.984;7.668;2022-10-22T11:12:23;19.30;99.90
2389;DHT22;1205;47.984;7.668;2022-10-22T11:15:07;19.10;99.90
2389;DHT22;1205;47.984;7.668;2022-10-22T11:17:40;19.10;99.90
2389;DHT22;1205;47.984;7.668;2022-10-22T11:20:19;19.10;99.90
2389;DHT22;1205;47.984;7.668;2022-10-22T11:23:13;19.00;99.90
2389;DHT22;1205;47.984;7.668;2022-10-22T11:25:44;19.10;99.90
2389;DHT22;1205;47.984;7.668;2022-10-22T11:28:31;19.20;99.90
2389;DHT22;1205;47.984;7.668;2022-10-22T11:31:04;19.30;99.90
2389;DHT22;1205;47.984;7.668;2022-10-22T11:36:27;19.50;99.90
2389;DHT22;1205;47.984;7.668;2022-10-22T11:38:53;19.60;99.90
2389;DHT22;1205;47.984;7.668;2022-10-22T11:41:24;19.70;99.90
2389;DHT22;1205;47.984;7.668;2022-10-22T11:44:17;19.60;99.90
2389;DHT22;1205;47.984;7.668;2022-10-22T11:46:54;19.70;99.90
2389;DHT22;1205;47.984;7.668;2022-10-22T11:49:26;19.80;99.90
2389;DHT22;1205;47.984;7.668;2022-10-22T11:52:20;19.80;99.90
2389;DHT22;1205;47.984;7.668;2022-10-22T11:54:46;19.80;99.90
2389;DHT22;1205;47.984;7.668;2022-10-22T11:59:48;20.00;99.90
2389;DHT22;1205;47.984;7.668;2022-10-22T12:04:54;19.80;99.90
2389;DHT22;1205;47.984;7.668;2022-10-22T12:10:20;19.70;99.90
2389;DHT22;1205;47.984;7.668;2022-10-22T12:13:20;19.70;99.90
2389;DHT22;1205;47.984;7.668;2022-10-22T12:15:48;19.70;99.90
2389;DHT22;1205;47.984;7.668;2022-10-22T12:18:15;19.70;99.90
2389;DHT22;1205;47.984;7.668;2022-10-22T12:20:41;19.70;99.90
2389;DHT22;1205;47.984;7.668;2022-10-22T12:23:10;19.70;99.90
2389;DHT22;1205;47.984;7.668;2022-10-22T12:25:36;19.70;99.90
2389;DHT22;1205;47.984;7.668;2022-10-22T12:28:03;19.80;99.90
2389;DHT22;1205;47.984;7.668;2022-10-22T12:30:31;19.80;99.90
2389;DHT22;1205;47.984;7.668;2022-10-22T12:33:00;19.80;99.90
2389;DHT22;1205;47.984;7.668;2022-10-22T12:35:31;19.90;99.90
2389;DHT22;1205;47.984;7.668;2022-10-22T12:38:01;19.90;99.90
2389;DHT22;1205;47.984;7.668;2022-10-22T12:40:28;19.90;99.90
2389;DHT22;1205;47.984;7.668;2022-10-22T12:42:59;20.00;99.90
2389;DHT22;1205;47.984;7.668;2022-10-22T12:45:29;20.00;99.90
2389;DHT22;1205;47.984;7.668;2022-10-22T12:47:57;20.10;99.90
2389;DHT22;1205;47.984;7.668;2022-10-22T12:50:39;20.00;99.90
2389;DHT22;1205;47.984;7.668;2022-10-22T12:53:09;20.10;99.90
2389;DHT22;1205;47.984;7.668;2022-10-22T12:55:37;20.00;99.90
2389;DHT22;1205;47.984;7.668;2022-10-22T12:58:05;20.10;99.90
2389;DHT22;1205;47.984;7.668;2022-10-22T13:00:33;20.10;99.90
2389;DHT22;1205;47.984;7.668;2022-10-22T13:03:05;20.20;99.90
2389;DHT22;1205;47.984;7.668;2022-10-22T13:05:33;20.10;99.90
2389;DHT22;1205;47.984;7.668;2022-10-22T13:08:11;20.10;99.90
2389;DHT22;1205;47.984;7.668;2022-10-22T13:10:49;20.10;99.90
2389;DHT22;1205;47.984;7.668;2022-10-22T13:16:22;20.20;99.90
2389;DHT22;1205;47.984;7.668;2022-10-22T13:18:52;20.20;99.90
2389;DHT22;1205;47.984;7.668;2022-10-22T13:21:33;20.20;99.90
2389;DHT22;1205;47.984;7.668;2022-10-22T13:24:01;20.30;99.90
2389;DHT22;1205;47.984;7.668;2022-10-22T13:26:35;20.20;99.90
2389;DHT22;1205;47.984;7.668;2022-10-22T13:29:09;20.20;99.90
2389;DHT22;1205;47.984;7.668;2022-10-22T13:31:36;20.30;99.90
2389;DHT22;1205;47.984;7.668;2022-10-22T13:34:16;20.20;99.90
2389;DHT22;1205;47.984;7.668;2022-10-22T13:36:42;20.20;99.90
2389;DHT22;1205;47.984;7.668;2022-10-22T13:39:15;20.20;99.90
2389;DHT22;1205;47.984;7.668;2022-10-22T13:41:41;20.20;99.90
2389;DHT22;1205;47.984;7.668;2022-10-22T13:44:07;20.20;99.90
2389;DHT22;1205;47.984;7.668;2022-10-22T13:46:32;20.20;99.90
2389;DHT22;1205;47.984;7.668;2022-10-22T13:49:04;20.20;99.90
2389;DHT22;1205;47.984;7.668;2022-10-22T13:51:33;20.20;99.90
2389;DHT22;1205;47.984;7.668;2022-10-22T13:54:00;20.20;99.90
2389;DHT22;1205;47.984;7.668;2022-10-22T13:56:26;20.20;99.90
2389;DHT22;1205;47.984;7.668;2022-10-22T13:58:51;20.20;99.90
2389;DHT22;1205;47.984;7.668;2022-10-22T14:01:27;20.20;99.90
2389;DHT22;1205;47.984;7.668;2022-10-22T14:03:59;20.10;99.90
2389;DHT22;1205;47.984;7.668;2022-10-22T14:06:29;20.10;99.90
2389;DHT22;1205;47.984;7.668;2022-10-22T14:09:09;20.10;99.90
2389;DHT22;1205;47.984;7.668;2022-10-22T14:11:36;20.10;99.90
2389;DHT22;1205;47.984;7.668;2022-10-22T14:14:02;20.20;99.90
2389;DHT22;1205;47.984;7.668;2022-10-22T14:16:30;20.10;99.90
2389;DHT22;1205;47.984;7.668;2022-10-22T14:18:57;20.20;99.90
2389;DHT22;1205;47.984;7.668;2022-10-22T14:21:23;20.20;99.90
2389;DHT22;1205;47.984;7.668;2022-10-22T14:23:49;20.10;99.90
2389;DHT22;1205;47.984;7.668;2022-10-22T14:26:28;20.10;99.90
2389;DHT22;1205;47.984;7.668;2022-10-22T14:28:55;20.10;99.90
2389;DHT22;1205;47.984;7.668;2022-10-22T14:31:22;20.10;99.90
2389;DHT22;1205;47.984;7.668;2022-10-22T14:33:47;20.00;99.90
2389;DHT22;1205;47.984;7.668;2022-10-22T14:36:15;20.00;99.90
2389;DHT22;1205;47.984;7.668;2022-10-22T14:38:42;20.00;99.90
2389;DHT22;1205;47.984;7.668;2022-10-22T14:43:45;20.00;99.90
2389;DHT22;1205;47.984;7.668;2022-10-22T14:46:11;20.00;99.90
2389;DHT22;1205;47.984;7.668;2022-10-22T14:48:38;20.00;99.90
2389;DHT22;1205;47.984;7.668;2022-10-22T14:51:03;19.90;99.90
2389;DHT22;1205;47.984;7.668;2022-10-22T14:53:29;19.90;99.90
2389;DHT22;1205;47.984;7.668;2022-10-22T14:55:55;19.90;99.90
2389;DHT22;1205;47.984;7.668;2022-10-22T14:58:24;19.90;99.90
2389;DHT22;1205;47.984;7.668;2022-10-22T15:00:50;19.80;99.90
2389;DHT22;1205;47.984;7.668;2022-10-22T15:03:15;19.80;99.90
2389;DHT22;1205;47.984;7.668;2022-10-22T15:05:42;19.70;99.90
2389;DHT22;1205;47.984;7.668;2022-10-22T15:08:12;19.70;99.90
2389;DHT22;1205;47.984;7.668;2022-10-22T15:10:37;19.70;99.90
2389;DHT22;1205;47.984;7.668;2022-10-22T15:13:03;19.70;99.90
2389;DHT22;1205;47.984;7.668;2022-10-22T15:15:29;19.70;99.90
2389;DHT22;1205;47.984;7.668;2022-10-22T15:17:54;19.60;99.90
2389;DHT22;1205;47.984;7.668;2022-10-22T15:20:20;19.50;99.90
2389;DHT22;1205;47.984;7.668;2022-10-22T15:22:45;19.50;99.90
2389;DHT22;1205;47.984;7.668;2022-10-22T15:25:12;19.50;99.90
2389;DHT22;1205;47.984;7.668;2022-10-22T15:27:37;19.50;99.90
2389;DHT22;1205;47.984;7.668;2022-10-22T15:30:04;19.50;99.90
2389;DHT22;1205;47.984;7.668;2022-10-22T15:32:30;19.50;99.90
2389;DHT22;1205;47.984;7.668;2022-10-22T15:34:58;19.40;99.90
2389;DHT22;1205;47.984;7.668;2022-10-22T15:37:24;19.40;99.90
2389;DHT22;1205;47.984;7.668;2022-10-22T15:39:49;19.40;99.90
2389;DHT22;1205;47.984;7.668;2022-10-22T15:42:15;19.30;99.90
2389;DHT22;1205;47.984;7.668;2022-10-22T15:44:41;19.30;99.90
2389;DHT22;1205;47.984;7.668;2022-10-22T15:47:07;19.30;99.90
2389;DHT22;1205;47.984;7.668;2022-10-22T15:49:34;19.30;99.90
2389;DHT22;1205;47.984;7.668;2022-10-22T15:52:00;19.20;99.90
2389;DHT22;1205;47.984;7.668;2022-10-22T15:54:28;19.20;99.90
2389;DHT22;1205;47.984;7.668;2022-10-22T15:56:58;19.10;99.90
2389;DHT22;1205;47.984;7.668;2022-10-22T15:59:24;19.10;99.90
2389;DHT22;1205;47.984;7.668;2022-10-22T16:01:50;19.20;99.90
2389;DHT22;1205;47.984;7.668;2022-10-22T16:04:16;19.30;99.90
2389;DHT22;1205;47.984;7.668;2022-10-22T16:06:44;19.40;99.90
2389;DHT22;1205;47.984;7.668;2022-10-22T16:09:13;19.50;99.90
2389;DHT22;1205;47.984;7.668;2022-10-22T16:11:39;19.50;99.90
2389;DHT22;1205;47.984;7.668;2022-10-22T16:14:05;19.60;99.90
2389;DHT22;1205;47.984;7.668;2022-10-22T16:16:33;19.50;99.90
2389;DHT22;1205;47.984;7.668;2022-10-22T16:19:00;19.20;99.90
2389;DHT22;1205;47.984;7.668;2022-10-22T16:21:27;19.10;99.90
2389;DHT22;1205;47.984;7.668;2022-10-22T16:23:53;18.90;99.90
2389;DHT22;1205;47.984;7.668;2022-10-22T16:26:18;18.80;99.90
2389;DHT22;1205;47.984;7.668;2022-10-22T16:28:45;18.70;99.90
2389;DHT22;1205;47.984;7.668;2022-10-22T16:31:12;18.50;99.90
2389;DHT22;1205;47.984;7.668;2022-10-22T16:33:39;18.50;99.90
2389;DHT22;1205;47.984;7.668;2022-10-22T16:36:17;18.40;99.90
2389;DHT22;1205;47.984;7.668;2022-10-22T16:38:43;18.30;99.90
2389;DHT22;1205;47.984;7.668;2022-10-22T16:41:14;18.10;99.90
2389;DHT22;1205;47.984;7.668;2022-10-22T16:43:41;18.00;99.90
2389;DHT22;1205;47.984;7.668;2022-10-22T16:46:07;17.90;99.90
2389;DHT22;1205;47.984;7.668;2022-10-22T16:48:33;17.80;99.90
2389;DHT22;1205;47.984;7.668;2022-10-22T16:51:05;17.80;99.90
2389;DHT22;1205;47.984;7.668;2022-10-22T16:53:30;17.70;99.90
2389;DHT22;1205;47.984;7.668;2022-10-22T16:55:56;17.60;99.90
2389;DHT22;1205;47.984;7.668;2022-10-22T16:58:22;17.60;99.90
2389;DHT22;1205;47.984;7.668;2022-10-22T17:00:47;17.60;99.90
2389;DHT22;1205;47.984;7.668;2022-10-22T17:03:13;17.50;99.90
2389;DHT22;1205;47.984;7.668;2022-10-22T17:05:38;17.50;99.90
2389;DHT22;1205;47.984;7.668;2022-10-22T17:08:04;17.50;99.90
2389;DHT22;1205;47.984;7.668;2022-10-22T17:10:30;17.40;99.90
2389;DHT22;1205;47.984;7.668;2022-10-22T17:12:55;17.50;99.90
2389;DHT22;1205;47.984;7.668;2022-10-22T17:15:21;17.40;99.90
2389;DHT22;1205;47.984;7.668;2022-10-22T17:17:46;17.40;99.90
2389;DHT22;1205;47.984;7.668;2022-10-22T17:20:17;17.40;99.90
2389;DHT22;1205;47.984;7.668;2022-10-22T17:22:43;17.40;99.90
2389;DHT22;1205;47.984;7.668;2022-10-22T17:25:14;17.40;99.90
2389;DHT22;1205;47.984;7.668;2022-10-22T17:27:41;17.40;99.90
2389;DHT22;1205;47.984;7.668;2022-10-22T17:30:07;17.30;99.90
2389;DHT22;1205;47.984;7.668;2022-10-22T17:32:37;17.30;99.90
2389;DHT22;1205;47.984;7.668;2022-10-22T17:35:05;17.30;99.90
2389;DHT22;1205;47.984;7.668;2022-10-22T17:37:31;17.30;99.90
2389;DHT22;1205;47.984;7.668;2022-10-22T17:39:57;17.20;99.90
2389;DHT22;1205;47.984;7.668;2022-10-22T17:42:23;17.20;99.90
2389;DHT22;1205;47.984;7.668;2022-10-22T17:44:48;17.20;99.90
2389;DHT22;1205;47.984;7.668;2022-10-22T17:47:14;17.20;99.90
2389;DHT22;1205;47.984;7.668;2022-10-22T17:49:40;17.10;99.90
2389;DHT22;1205;47.984;7.668;2022-10-22T17:52:06;17.10;99.90
2389;DHT22;1205;47.984;7.668;2022-10-22T17:54:32;17.10;99.90
2389;DHT22;1205;47.984;7.668;2022-10-22T17:56:58;17.10;99.90
2389;DHT22;1205;47.984;7.668;2022-10-22T17:59:23;17.10;99.90